Time;durP1;ratioP1;P1;durP2;ratioP2;P2;SDS_P1;SDS_P2;PMS_P1;PMS_P2;Temp;Humidity;BMP_temperature;BMP_pressure;BME280_temperature;BME280_humidity;BME280_pressure;Samples;Min_cycle;Max_cycle;Signal;HPM_P1;HPM_P2
2020/12/18 00:02:22;;;;;;;11.02;7.47;;;7.30;99.90;;;;;;5033583;28;20233;-75
2020/12/18 00:04:49;;;;;;;13.18;7.13;;;7.40;99.90;;;;;;5032672;28;20314;-75
2020/12/18 00:07:16;;;;;;;10.70;7.35;;;7.50;99.90;;;;;;5032977;28;20196;-75
2020/12/18 00:09:43;;;;;;;10.00;6.80;;;7.50;99.90;;;;;;5032729;28;20224;-75
2020/12/18 00:12:09;;;;;;;13.30;7.00;;;7.50;99.90;;;;;;5032225;28;20204;-75
2020/12/18 00:14:36;;;;;;;10.50;6.22;;;7.50;99.90;;;;;;5032354;28;20301;-75
2020/12/18 00:17:03;;;;;;;13.45;6.90;;;7.50;99.90;;;;;;5032596;28;20200;-73
2020/12/18 00:19:31;;;;;;;12.00;6.40;;;7.40;99.90;;;;;;5032309;28;20243;-75
2020/12/18 00:21:58;;;;;;;9.80;6.43;;;7.40;99.90;;;;;;5032460;28;20283;-76
2020/12/18 00:24:24;;;;;;;14.35;7.95;;;7.20;99.90;;;;;;5032552;28;20632;-75
2020/12/18 00:26:50;;;;;;;10.43;7.32;;;7.30;99.90;;;;;;5032005;28;20693;-74
2020/12/18 00:29:17;;;;;;;11.27;6.53;;;7.30;99.90;;;;;;5032197;28;20677;-73
2020/12/18 00:31:43;;;;;;;12.18;7.40;;;7.20;99.90;;;;;;5031824;28;20287;-74
2020/12/18 00:34:10;;;;;;;9.20;7.15;;;7.20;99.90;;;;;;5032206;28;20096;-75
2020/12/18 00:36:37;;;;;;;12.20;7.05;;;7.10;99.90;;;;;;5032072;28;20291;-76
2020/12/18 00:39:05;;;;;;;10.38;6.75;;;6.80;99.90;;;;;;5032641;28;20207;-76
2020/12/18 00:41:32;;;;;;;14.25;7.40;;;6.60;99.90;;;;;;5032675;28;20272;-76
2020/12/18 00:43:58;;;;;;;9.98;7.30;;;6.40;99.90;;;;;;5032719;28;20614;-76
2020/12/18 00:46:25;;;;;;;10.30;7.13;;;6.40;99.90;;;;;;5031971;28;20737;-74
2020/12/18 00:48:51;;;;;;;12.13;8.10;;;6.50;99.90;;;;;;5032492;28;20246;-76
2020/12/18 00:51:18;;;;;;;12.77;7.85;;;6.60;99.90;;;;;;5032415;28;20565;-74
2020/12/18 00:53:45;;;;;;;12.80;7.63;;;6.70;99.90;;;;;;5032033;28;20220;-73
2020/12/18 00:56:12;;;;;;;13.88;7.50;;;6.80;99.90;;;;;;5031991;28;20197;-75
2020/12/18 00:58:42;;;;;;;10.90;7.03;;;6.90;99.90;;;;;;5029244;28;20653;-76
2020/12/18 01:01:09;;;;;;;8.90;6.88;;;6.90;99.90;;;;;;5031901;28;20690;-74
2020/12/18 01:03:35;;;;;;;10.27;7.05;;;6.90;99.90;;;;;;5032095;28;20312;-75
2020/12/18 01:06:06;;;;;;;11.63;7.55;;;6.90;99.90;;;;;;5031772;28;20294;-75
2020/12/18 01:08:32;;;;;;;11.68;6.70;;;6.90;99.90;;;;;;5031917;28;20730;-74
2020/12/18 01:11:03;;;;;;;14.07;7.57;;;6.90;99.90;;;;;;5031997;28;20188;-74
2020/12/18 01:13:30;;;;;;;14.93;7.25;;;6.90;99.90;;;;;;5029795;28;20222;-74
2020/12/18 01:15:56;;;;;;;11.60;7.13;;;6.90;99.90;;;;;;5031926;28;20196;-74
2020/12/18 01:18:23;;;;;;;11.05;7.47;;;6.90;99.90;;;;;;5031846;28;20200;-75
2020/12/18 01:20:50;;;;;;;12.15;7.25;;;6.90;99.90;;;;;;5031734;28;20216;-74
2020/12/18 01:23:17;;;;;;;9.23;6.85;;;6.90;99.90;;;;;;5031881;28;20226;-75
2020/12/18 01:25:43;;;;;;;12.95;7.50;;;6.90;99.90;;;;;;5031577;28;20238;-76
2020/12/18 01:28:10;;;;;;;11.20;6.63;;;6.80;99.90;;;;;;5031913;28;20295;-73
2020/12/18 01:30:37;;;;;;;14.57;8.00;;;6.80;99.90;;;;;;5031657;28;20684;-74
2020/12/18 01:33:03;;;;;;;11.05;6.72;;;6.90;99.90;;;;;;5032084;28;20554;-75
2020/12/18 01:35:30;;;;;;;10.68;6.65;;;6.90;99.90;;;;;;5032688;28;20258;-72
2020/12/18 01:37:56;;;;;;;12.30;8.65;;;6.90;99.90;;;;;;5033576;28;20211;-73
2020/12/18 01:40:22;;;;;;;11.32;6.97;;;7.00;99.90;;;;;;5033379;28;20221;-74
2020/12/18 01:42:49;;;;;;;13.40;7.50;;;7.00;99.90;;;;;;5033497;28;20342;-73
2020/12/18 01:45:16;;;;;;;14.07;7.70;;;7.00;99.90;;;;;;5036096;28;20314;-74
2020/12/18 01:47:42;;;;;;;12.10;8.18;;;7.00;99.90;;;;;;5036966;28;20211;-74
2020/12/18 01:50:09;;;;;;;10.25;7.45;;;7.10;99.90;;;;;;5037237;28;20200;-73
2020/12/18 01:52:36;;;;;;;13.38;7.63;;;7.10;99.90;;;;;;5037244;28;20208;-71
2020/12/18 01:55:05;;;;;;;11.88;7.43;;;7.20;99.90;;;;;;5037232;28;20220;-71
2020/12/18 01:57:32;;;;;;;15.00;9.00;;;7.30;99.90;;;;;;5036667;28;20643;-73
2020/12/18 02:00:00;;;;;;;19.15;7.95;;;7.30;99.90;;;;;;5036696;28;20231;-73
2020/12/18 02:02:29;;;;;;;11.13;7.57;;;7.30;99.90;;;;;;5036776;28;20206;-73
2020/12/18 02:04:56;;;;;;;13.93;8.77;;;7.30;99.90;;;;;;5036777;28;20282;-73
2020/12/18 02:07:24;;;;;;;12.65;8.23;;;7.40;99.90;;;;;;5036813;28;20223;-73
2020/12/18 02:09:51;;;;;;;10.93;7.65;;;7.40;99.90;;;;;;5036074;28;20206;-73
2020/12/18 02:12:18;;;;;;;14.63;8.63;;;7.30;99.90;;;;;;5036475;28;20294;-73
2020/12/18 02:14:48;;;;;;;13.40;8.05;;;7.00;99.90;;;;;;5036449;28;20228;-73
2020/12/18 02:17:15;;;;;;;13.38;8.60;;;7.00;99.90;;;;;;5036980;28;20211;-74
2020/12/18 02:19:43;;;;;;;16.65;7.38;;;7.00;99.90;;;;;;5035972;28;20747;-73
2020/12/18 02:22:18;;;;;;;9.95;7.35;;;7.00;99.90;;;;;;5036342;28;20571;-74
2020/12/18 02:24:50;;;;;;;14.88;8.32;;;6.70;99.90;;;;;;5035756;28;20697;-74
2020/12/18 02:27:18;;;;;;;13.55;8.48;;;6.80;99.90;;;;;;5036293;28;20235;-73
2020/12/18 02:29:44;;;;;;;11.90;8.13;;;6.80;99.90;;;;;;5036323;28;20250;-73
2020/12/18 02:32:11;;;;;;;17.00;8.30;;;6.80;99.90;;;;;;5036448;28;20303;-73
2020/12/18 02:34:37;;;;;;;11.15;7.15;;;6.80;99.90;;;;;;5035670;28;20227;-74
2020/12/18 02:37:03;;;;;;;14.15;8.00;;;6.80;99.90;;;;;;5036006;28;20306;-73
2020/12/18 02:39:30;;;;;;;14.77;7.78;;;6.90;99.90;;;;;;5036019;28;20223;-73
2020/12/18 02:41:56;;;;;;;9.68;6.90;;;6.90;99.90;;;;;;5036067;28;20280;-73
2020/12/18 02:44:24;;;;;;;9.75;6.65;;;6.90;99.90;;;;;;5035900;28;20366;-73
2020/12/18 02:46:50;;;;;;;14.23;6.82;;;6.80;99.90;;;;;;5036100;28;20204;-73
2020/12/18 02:49:16;;;;;;;13.98;7.10;;;6.70;99.90;;;;;;5036096;28;20208;-73
2020/12/18 02:51:44;;;;;;;12.70;7.45;;;6.50;99.90;;;;;;5035674;28;20577;-73
2020/12/18 02:54:11;;;;;;;12.82;6.70;;;6.60;99.90;;;;;;5035196;28;20255;-73
2020/12/18 02:56:38;;;;;;;12.80;7.22;;;6.50;99.90;;;;;;5035565;28;20208;-72
2020/12/18 02:59:04;;;;;;;13.77;7.45;;;6.30;99.90;;;;;;5035695;28;20295;-73
2020/12/18 03:01:32;;;;;;;13.60;7.35;;;6.00;99.90;;;;;;5035963;28;20299;-73
2020/12/18 03:03:58;;;;;;;11.15;7.18;;;5.80;99.90;;;;;;5035693;28;20224;-73
2020/12/18 03:06:24;;;;;;;13.10;7.28;;;5.80;99.90;;;;;;5035665;28;20294;-73
2020/12/18 03:08:51;;;;;;;13.95;8.25;;;5.90;99.90;;;;;;5035487;28;20211;-73
2020/12/18 03:11:17;;;;;;;10.43;7.25;;;6.00;99.90;;;;;;5036029;28;20197;-73
2020/12/18 03:13:44;;;;;;;14.15;6.90;;;6.10;99.90;;;;;;5036487;28;20224;-73
2020/12/18 03:16:11;;;;;;;12.25;7.00;;;6.20;99.90;;;;;;5036218;28;20211;-73
2020/12/18 03:18:38;;;;;;;15.60;8.98;;;6.30;99.90;;;;;;5035824;28;20681;-73
2020/12/18 03:21:04;;;;;;;14.07;9.30;;;6.30;99.90;;;;;;5035622;28;20228;-73
2020/12/18 03:23:31;;;;;;;16.17;9.82;;;6.40;99.90;;;;;;5035068;28;20232;-73
2020/12/18 03:25:57;;;;;;;13.85;9.10;;;6.50;99.90;;;;;;5035129;28;20294;-73
2020/12/18 03:28:24;;;;;;;13.40;7.65;;;6.60;99.90;;;;;;5035290;28;20234;-72
2020/12/18 03:30:50;;;;;;;13.60;8.20;;;6.70;99.90;;;;;;5035125;28;20211;-73
2020/12/18 03:33:16;;;;;;;12.98;8.35;;;6.80;99.90;;;;;;5035301;28;20232;-73
2020/12/18 03:35:43;;;;;;;12.13;7.90;;;6.80;99.90;;;;;;5034873;28;20600;-73
2020/12/18 03:38:10;;;;;;;13.85;9.52;;;6.90;99.90;;;;;;5034944;28;20658;-72
2020/12/18 03:40:36;;;;;;;14.57;8.70;;;7.00;99.90;;;;;;5034573;28;20752;-73
2020/12/18 03:43:03;;;;;;;28.30;13.25;;;7.10;99.90;;;;;;5034495;28;20291;-73
2020/12/18 03:45:29;;;;;;;16.85;10.68;;;7.10;99.90;;;;;;5034879;28;20574;-73
2020/12/18 03:47:55;;;;;;;12.20;8.20;;;7.10;99.90;;;;;;5034376;28;20200;-72
2020/12/18 03:50:22;;;;;;;13.27;8.23;;;7.10;99.90;;;;;;5034685;28;20578;-73
2020/12/18 03:52:49;;;;;;;13.30;7.85;;;7.10;99.90;;;;;;5034732;28;20207;-72
2020/12/18 03:55:15;;;;;;;14.00;7.82;;;7.10;99.90;;;;;;5034809;28;20231;-73
2020/12/18 03:57:41;;;;;;;11.05;7.60;;;7.20;99.90;;;;;;5034976;28;20295;-73
2020/12/18 04:00:08;;;;;;;13.75;8.10;;;7.10;99.90;;;;;;5034780;28;20315;-74
2020/12/18 04:02:35;;;;;;;11.93;7.28;;;6.90;99.90;;;;;;5034546;28;20214;-73
2020/12/18 04:05:01;;;;;;;12.60;7.88;;;6.80;99.90;;;;;;5033967;28;20732;-73
2020/12/18 04:07:27;;;;;;;11.18;7.22;;;6.80;99.90;;;;;;5033561;28;20201;-72
2020/12/18 04:09:54;;;;;;;11.60;8.30;;;6.70;99.90;;;;;;5034867;28;20295;-73
2020/12/18 04:12:21;;;;;;;15.25;8.60;;;6.60;99.90;;;;;;5034616;28;20294;-73
2020/12/18 04:14:47;;;;;;;18.52;9.25;;;6.60;99.90;;;;;;5034130;28;20312;-73
2020/12/18 04:17:14;;;;;;;14.82;8.80;;;6.60;99.90;;;;;;5034913;28;20242;-73
2020/12/18 04:19:40;;;;;;;17.35;10.02;;;6.50;99.90;;;;;;5034493;28;20224;-73
2020/12/18 04:22:07;;;;;;;13.57;8.38;;;6.40;99.90;;;;;;5034388;28;20215;-73
2020/12/18 04:24:33;;;;;;;13.40;9.32;;;6.30;99.90;;;;;;5034573;28;20625;-74
2020/12/18 04:27:01;;;;;;;15.70;9.02;;;6.50;99.90;;;;;;5034639;28;20206;-73
2020/12/18 04:29:27;;;;;;;14.95;8.15;;;6.70;99.90;;;;;;5034713;28;20299;-74
2020/12/18 04:31:53;;;;;;;16.05;8.93;;;6.80;99.90;;;;;;5034109;28;20303;-73
2020/12/18 04:34:20;;;;;;;15.10;8.45;;;7.00;99.90;;;;;;5033995;28;20574;-73
2020/12/18 04:36:46;;;;;;;14.23;7.95;;;7.10;99.90;;;;;;5034369;28;20208;-74
2020/12/18 04:39:12;;;;;;;13.82;8.65;;;7.20;99.90;;;;;;5034352;28;20207;-73
2020/12/18 04:41:39;;;;;;;13.48;8.55;;;7.30;99.90;;;;;;5034449;28;20214;-73
2020/12/18 04:44:06;;;;;;;10.57;8.27;;;7.20;99.90;;;;;;5034296;28;20224;-74
2020/12/18 04:46:36;;;;;;;14.07;7.45;;;7.00;99.90;;;;;;5034568;28;20203;-73
2020/12/18 04:49:03;;;;;;;11.75;7.60;;;6.90;99.90;;;;;;5035119;28;20204;-74
2020/12/18 04:51:29;;;;;;;15.90;9.55;;;6.90;99.90;;;;;;5035598;28;20200;-73
2020/12/18 04:53:56;;;;;;;13.20;8.25;;;6.90;99.90;;;;;;5034174;28;20310;-73
2020/12/18 04:56:25;;;;;;;12.43;8.63;;;6.90;99.90;;;;;;5034155;28;20206;-73
2020/12/18 04:58:53;;;;;;;14.40;8.55;;;7.00;99.90;;;;;;5034230;28;20203;-73
2020/12/18 05:01:22;;;;;;;11.45;8.60;;;7.00;99.90;;;;;;5034132;28;20315;-73
2020/12/18 05:03:49;;;;;;;13.90;9.52;;;7.00;99.90;;;;;;5034350;28;20224;-73
2020/12/18 05:06:15;;;;;;;13.80;8.90;;;7.00;99.90;;;;;;5033897;28;20215;-73
2020/12/18 05:08:43;;;;;;;12.95;9.13;;;7.00;99.90;;;;;;5034075;28;20204;-73
2020/12/18 05:11:21;;;;;;;13.20;7.60;;;7.00;99.90;;;;;;5033911;28;20207;-73
2020/12/18 05:13:50;;;;;;;13.13;8.45;;;6.90;99.90;;;;;;5033437;28;20235;-73
2020/12/18 05:16:17;;;;;;;20.77;9.10;;;6.80;99.90;;;;;;5033482;28;20200;-72
2020/12/18 05:18:45;;;;;;;13.18;7.90;;;6.60;99.90;;;;;;5036324;28;20204;-73
2020/12/18 05:21:12;;;;;;;14.48;8.82;;;6.60;99.90;;;;;;5037810;28;20224;-72
2020/12/18 05:23:39;;;;;;;12.43;7.60;;;6.60;99.90;;;;;;5038164;28;20342;-73
2020/12/18 05:26:07;;;;;;;15.07;7.70;;;6.40;99.90;;;;;;5037454;28;20290;-72
2020/12/18 05:28:41;;;;;;;12.25;8.10;;;6.30;99.90;;;;;;5037512;28;20204;-72
2020/12/18 05:31:12;;;;;;;12.95;8.20;;;6.10;99.90;;;;;;5037185;28;20702;-72
2020/12/18 05:33:39;;;;;;;13.40;8.52;;;6.10;99.90;;;;;;5037400;28;20720;-73
2020/12/18 05:36:06;;;;;;;12.10;7.50;;;6.10;99.90;;;;;;5037292;28;20204;-73
2020/12/18 05:38:35;;;;;;;15.25;8.40;;;6.20;99.90;;;;;;5037354;28;20204;-73
2020/12/18 05:41:03;;;;;;;16.67;9.10;;;6.40;99.90;;;;;;5037236;28;20228;-72
2020/12/18 05:43:39;;;;;;;15.70;9.05;;;6.40;99.90;;;;;;5037065;28;20252;-73
2020/12/18 05:46:16;;;;;;;16.08;8.20;;;6.50;99.90;;;;;;5037155;28;20274;-73
2020/12/18 05:48:44;;;;;;;12.90;7.57;;;6.60;99.90;;;;;;5037184;28;20214;-73
2020/12/18 05:51:25;;;;;;;16.60;8.85;;;6.70;99.90;;;;;;5037256;28;20200;-72
2020/12/18 05:54:10;;;;;;;12.85;9.48;;;6.70;99.90;;;;;;5037075;28;20227;-73
2020/12/18 05:56:37;;;;;;;16.30;8.98;;;6.70;99.90;;;;;;5037153;28;20207;-73
2020/12/18 05:59:11;;;;;;;10.63;7.90;;;6.70;99.90;;;;;;5037274;28;20214;-73
2020/12/18 06:01:43;;;;;;;14.45;8.80;;;6.60;99.90;;;;;;5036588;28;20691;-73
2020/12/18 06:04:11;;;;;;;16.63;9.23;;;6.70;99.90;;;;;;5036428;28;20730;-73
2020/12/18 06:06:43;;;;;;;11.70;8.45;;;6.60;99.90;;;;;;5036681;28;20204;-73
2020/12/18 06:09:10;;;;;;;11.98;8.80;;;6.70;99.90;;;;;;5037037;28;20259;-72
2020/12/18 06:11:37;;;;;;;19.45;9.68;;;6.60;99.90;;;;;;5036542;28;20204;-72
2020/12/18 06:14:04;;;;;;;12.38;8.75;;;6.40;99.90;;;;;;5036428;28;20230;-73
2020/12/18 06:16:31;;;;;;;13.68;9.35;;;6.40;99.90;;;;;;5036466;28;20714;-72
2020/12/18 06:19:04;;;;;;;12.55;8.20;;;6.50;99.90;;;;;;5037199;28;20216;-72
2020/12/18 06:21:31;;;;;;;11.25;8.25;;;6.50;99.90;;;;;;5037042;28;20228;-73
2020/12/18 06:23:58;;;;;;;15.90;8.68;;;6.20;99.90;;;;;;5036872;28;20224;-73
2020/12/18 06:26:25;;;;;;;14.70;9.57;;;6.00;99.90;;;;;;5036457;28;20298;-73
2020/12/18 06:28:52;;;;;;;17.75;9.63;;;6.10;99.90;;;;;;5036301;28;20597;-72
2020/12/18 06:31:26;;;;;;;11.40;8.95;;;6.20;99.90;;;;;;5036123;28;20223;-73
2020/12/18 06:33:53;;;;;;;11.98;8.10;;;6.30;99.90;;;;;;5036816;28;20319;-72
2020/12/18 06:36:59;;;;;;;15.90;9.10;;;6.40;99.90;;;;;;5036935;28;20204;-72
2020/12/18 06:39:28;;;;;;;15.10;9.15;;;6.40;99.90;;;;;;5036854;28;20208;-73
2020/12/18 06:42:14;;;;;;;15.88;8.30;;;6.40;99.90;;;;;;5036403;28;20204;-72
2020/12/18 06:44:42;;;;;;;14.13;7.95;;;6.50;99.90;;;;;;5036196;28;20224;-72
2020/12/18 06:47:17;;;;;;;14.02;7.80;;;6.50;99.90;;;;;;5035989;28;20236;-73
2020/12/18 06:50:15;;;;;;;17.00;8.10;;;6.50;99.90;;;;;;5035796;28;20298;-73
2020/12/18 06:52:55;;;;;;;17.10;7.82;;;6.70;99.90;;;;;;5035807;28;20223;-73
2020/12/18 06:55:39;;;;;;;12.73;7.97;;;6.80;99.90;;;;;;5036165;28;20654;-73
2020/12/18 06:58:13;;;;;;;13.00;8.23;;;6.80;99.90;;;;;;5035835;28;20210;-73
2020/12/18 07:00:50;;;;;;;14.02;7.60;;;6.90;99.90;;;;;;5035938;28;20223;-73
2020/12/18 07:03:35;;;;;;;13.43;8.48;;;6.80;99.90;;;;;;5035962;28;20223;-73
2020/12/18 07:06:03;;;;;;;12.23;7.50;;;6.60;99.90;;;;;;5035607;28;20269;-73
2020/12/18 07:08:31;;;;;;;17.00;9.20;;;6.50;99.90;;;;;;5035720;28;20649;-73
2020/12/18 07:11:02;;;;;;;13.77;7.90;;;6.30;99.90;;;;;;5035421;28;20200;-73
2020/12/18 07:13:30;;;;;;;13.10;8.93;;;6.30;99.90;;;;;;5035525;28;20235;-73
2020/12/18 07:16:08;;;;;;;14.30;9.38;;;6.30;99.90;;;;;;5035733;28;20208;-74
2020/12/18 07:18:36;;;;;;;12.57;8.10;;;6.30;99.90;;;;;;5035841;28;20204;-73
2020/12/18 07:21:04;;;;;;;19.60;8.70;;;6.50;99.90;;;;;;5035692;28;20310;-73
2020/12/18 07:23:32;;;;;;;12.10;8.10;;;6.60;99.90;;;;;;5035135;28;20224;-73
2020/12/18 07:26:00;;;;;;;13.50;8.88;;;6.80;99.90;;;;;;5035317;28;20200;-73
2020/12/18 07:28:28;;;;;;;14.00;9.38;;;6.80;99.90;;;;;;5035651;28;20204;-73
2020/12/18 07:30:55;;;;;;;15.35;9.20;;;7.00;99.90;;;;;;5034985;28;20242;-73
2020/12/18 07:33:23;;;;;;;13.40;9.63;;;7.00;99.90;;;;;;5034978;28;20634;-73
2020/12/18 07:35:50;;;;;;;13.65;8.73;;;7.10;99.90;;;;;;5035119;28;20342;-73
2020/12/18 07:38:22;;;;;;;12.65;8.43;;;7.20;99.90;;;;;;5035422;28;20208;-73
2020/12/18 07:40:52;;;;;;;12.52;8.05;;;7.20;99.90;;;;;;5035798;28;20602;-73
2020/12/18 07:43:22;;;;;;;11.25;7.97;;;7.20;99.90;;;;;;5035388;28;20224;-74
2020/12/18 07:45:50;;;;;;;14.18;9.57;;;7.30;99.90;;;;;;5035690;28;20570;-73
2020/12/18 07:48:19;;;;;;;16.17;9.10;;;7.30;99.90;;;;;;5035515;28;20204;-73
2020/12/18 07:51:02;;;;;;;14.07;9.32;;;7.30;99.90;;;;;;5035486;28;20318;-73
2020/12/18 07:53:30;;;;;;;14.70;8.10;;;7.10;99.90;;;;;;5035326;28;20224;-73
2020/12/18 07:56:05;;;;;;;13.98;7.97;;;7.00;99.90;;;;;;5034911;28;20208;-74
2020/12/18 07:58:34;;;;;;;17.00;8.85;;;7.00;99.90;;;;;;5034962;28;20211;-72
2020/12/18 08:01:08;;;;;;;12.93;8.75;;;6.90;99.90;;;;;;5034705;28;20242;-73
2020/12/18 08:03:36;;;;;;;16.40;9.73;;;6.80;99.90;;;;;;5035029;28;20234;-73
2020/12/18 08:06:04;;;;;;;13.77;8.55;;;7.00;99.90;;;;;;5034231;28;20303;-73
2020/12/18 08:08:32;;;;;;;17.63;9.60;;;7.10;99.90;;;;;;5034443;28;20204;-74
2020/12/18 08:11:01;;;;;;;15.35;9.80;;;7.20;99.90;;;;;;5035464;28;20262;-73
2020/12/18 08:13:29;;;;;;;14.77;8.63;;;7.30;99.90;;;;;;5035550;28;20307;-72
2020/12/18 08:16:13;;;;;;;12.90;8.15;;;7.30;99.90;;;;;;5035133;28;20209;-73
2020/12/18 08:18:45;;;;;;;15.73;8.38;;;7.40;99.90;;;;;;5035682;28;20203;-72
2020/12/18 08:21:11;;;;;;;11.68;8.80;;;7.50;99.90;;;;;;5034987;28;20648;-72
2020/12/18 08:23:44;;;;;;;17.48;9.55;;;7.40;99.90;;;;;;5034807;28;20315;-73
2020/12/18 08:26:11;;;;;;;14.52;9.85;;;7.40;99.90;;;;;;5034918;28;20204;-72
2020/12/18 08:28:39;;;;;;;16.50;10.10;;;7.60;99.90;;;;;;5035519;28;20257;-72
2020/12/18 08:31:08;;;;;;;18.55;9.77;;;7.80;99.90;;;;;;5034891;28;20212;-72
2020/12/18 08:33:38;;;;;;;19.23;10.45;;;7.70;99.90;;;;;;5034754;28;20230;-73
2020/12/18 08:36:06;;;;;;;17.75;10.32;;;7.70;99.90;;;;;;5034591;28;20216;-72
2020/12/18 08:38:32;;;;;;;17.88;10.05;;;7.70;99.90;;;;;;5035152;28;20203;-72
2020/12/18 08:40:58;;;;;;;15.38;9.82;;;7.80;99.90;;;;;;5034944;28;20224;-72
2020/12/18 08:43:25;;;;;;;14.77;9.43;;;7.80;99.90;;;;;;5034488;28;20235;-71
2020/12/18 08:45:51;;;;;;;12.60;9.48;;;7.80;99.90;;;;;;5034595;28;20550;-72
2020/12/18 08:48:26;;;;;;;15.27;9.68;;;7.80;99.90;;;;;;5035021;28;20214;-72
2020/12/18 08:51:00;;;;;;;14.85;8.90;;;7.90;99.90;;;;;;5035096;28;20303;-72
2020/12/18 08:53:33;;;;;;;15.52;9.45;;;8.10;99.90;;;;;;5034342;28;20742;-73
2020/12/18 08:56:09;;;;;;;15.82;9.38;;;8.20;99.90;;;;;;5033120;28;20215;-75
2020/12/18 08:58:36;;;;;;;16.00;9.73;;;8.20;99.90;;;;;;5032076;28;20654;-74
2020/12/18 09:01:02;;;;;;;17.83;10.05;;;8.20;99.90;;;;;;5032209;28;20314;-75
2020/12/18 09:03:39;;;;;;;16.05;9.90;;;8.20;99.90;;;;;;5032001;28;20556;-73
2020/12/18 09:06:12;;;;;;;16.92;9.52;;;8.20;99.90;;;;;;5030687;28;20282;-73
2020/12/18 09:08:39;;;;;;;15.48;10.30;;;8.20;99.90;;;;;;5032908;28;20224;-72
2020/12/18 09:11:05;;;;;;;15.23;9.10;;;8.40;99.90;;;;;;5032914;28;20658;-75
2020/12/18 09:13:36;;;;;;;17.10;10.10;;;8.40;99.90;;;;;;5031797;28;20212;-76
2020/12/18 09:16:04;;;;;;;15.68;10.13;;;8.60;99.90;;;;;;5031008;28;20200;-72
2020/12/18 09:18:32;;;;;;;13.48;8.63;;;8.40;99.90;;;;;;5036071;28;20214;-72
2020/12/18 09:21:09;;;;;;;17.83;9.73;;;8.50;99.90;;;;;;5035607;28;20228;-72
2020/12/18 09:23:37;;;;;;;14.73;10.07;;;8.70;99.90;;;;;;5033554;28;20274;-73
2020/12/18 09:26:04;;;;;;;13.48;9.52;;;8.70;99.90;;;;;;5033183;28;20208;-73
2020/12/18 09:28:36;;;;;;;14.80;9.43;;;8.80;99.90;;;;;;5033422;28;20295;-73
2020/12/18 09:31:03;;;;;;;15.00;9.40;;;8.90;99.90;;;;;;5033356;28;20208;-73
2020/12/18 09:33:31;;;;;;;14.60;9.10;;;8.90;99.90;;;;;;5033465;28;20771;-73
2020/12/18 09:36:00;;;;;;;15.05;9.50;;;8.80;99.90;;;;;;5032889;28;20204;-73
2020/12/18 09:38:28;;;;;;;15.85;10.13;;;8.80;99.90;;;;;;5033935;28;20208;-72
2020/12/18 09:40:56;;;;;;;15.80;10.27;;;8.70;99.90;;;;;;5033213;28;20753;-73
2020/12/18 09:43:23;;;;;;;12.27;9.60;;;8.60;99.90;;;;;;5033479;28;20315;-72
2020/12/18 09:45:51;;;;;;;14.68;9.05;;;8.40;99.90;;;;;;5033486;28;20730;-73
2020/12/18 09:48:18;;;;;;;14.95;10.48;;;8.30;99.90;;;;;;5033073;28;20200;-73
2020/12/18 09:50:45;;;;;;;14.82;9.50;;;8.10;99.90;;;;;;5033208;28;20564;-72
2020/12/18 09:53:12;;;;;;;18.02;9.45;;;8.00;99.90;;;;;;5032984;28;20204;-73
2020/12/18 09:55:38;;;;;;;19.58;10.20;;;7.80;99.90;;;;;;5033048;28;20311;-73
2020/12/18 09:58:05;;;;;;;16.00;9.40;;;7.70;99.90;;;;;;5033309;28;20680;-72
2020/12/18 10:00:32;;;;;;;14.00;9.10;;;7.70;99.90;;;;;;5033406;28;20558;-72
2020/12/18 10:02:58;;;;;;;17.67;10.73;;;7.60;99.90;;;;;;5032975;28;20208;-73
2020/12/18 10:05:26;;;;;;;13.95;9.55;;;7.80;99.90;;;;;;5034501;28;20565;-73
2020/12/18 10:07:52;;;;;;;15.95;9.35;;;7.90;99.90;;;;;;5036976;28;20200;-73
2020/12/18 10:10:19;;;;;;;16.20;9.40;;;8.00;99.90;;;;;;5036766;28;20204;-73
2020/12/18 10:12:45;;;;;;;15.50;9.43;;;7.90;99.90;;;;;;5036814;28;20204;-73
2020/12/18 10:15:12;;;;;;;17.40;9.70;;;7.80;99.90;;;;;;5036754;28;20317;-72
2020/12/18 10:17:38;;;;;;;14.63;9.90;;;7.80;99.90;;;;;;5036470;28;20294;-72
2020/12/18 10:20:06;;;;;;;17.75;9.70;;;7.70;99.90;;;;;;5036684;28;20211;-73
2020/12/18 10:22:32;;;;;;;15.10;9.30;;;7.70;99.90;;;;;;5036594;28;20204;-73
2020/12/18 10:24:58;;;;;;;16.08;9.90;;;7.90;99.90;;;;;;5036590;28;20228;-73
2020/12/18 10:27:25;;;;;;;14.43;9.73;;;7.90;99.90;;;;;;5036647;28;20613;-73
2020/12/18 10:29:54;;;;;;;20.02;10.25;;;8.10;99.90;;;;;;5036800;28;20206;-72
2020/12/18 10:32:22;;;;;;;17.33;10.60;;;8.20;99.90;;;;;;5035991;28;20299;-73
2020/12/18 10:34:48;;;;;;;19.52;10.60;;;8.10;99.90;;;;;;5035800;28;20227;-72
2020/12/18 10:37:15;;;;;;;20.67;9.52;;;8.10;99.90;;;;;;5036320;28;20204;-73
2020/12/18 10:39:42;;;;;;;16.33;9.13;;;8.10;99.90;;;;;;5036396;28;20237;-73
2020/12/18 10:42:08;;;;;;;16.13;10.57;;;8.10;99.90;;;;;;5036292;28;20228;-73
2020/12/18 10:44:35;;;;;;;17.67;10.32;;;8.10;99.90;;;;;;5035556;28;20263;-73
2020/12/18 10:47:02;;;;;;;15.60;9.65;;;8.00;99.90;;;;;;5036180;28;20566;-73
2020/12/18 10:49:30;;;;;;;18.75;10.77;;;8.00;99.90;;;;;;5036039;28;20651;-73
2020/12/18 10:51:56;;;;;;;19.38;11.20;;;7.90;99.90;;;;;;5035921;28;20642;-72
2020/12/18 10:54:22;;;;;;;17.48;10.70;;;7.80;99.90;;;;;;5036057;28;20314;-72
2020/12/18 10:56:50;;;;;;;17.25;10.20;;;7.90;99.90;;;;;;5035907;28;20207;-73
2020/12/18 10:59:17;;;;;;;17.02;11.25;;;8.00;99.90;;;;;;5035692;28;20200;-73
2020/12/18 11:01:43;;;;;;;17.35;10.77;;;8.00;99.90;;;;;;5035314;28;20701;-73
2020/12/18 11:04:09;;;;;;;19.20;11.50;;;8.10;99.90;;;;;;5036074;28;20319;-72
2020/12/18 11:06:39;;;;;;;16.67;10.98;;;8.20;99.90;;;;;;5035694;28;20306;-73
2020/12/18 11:09:05;;;;;;;17.65;11.35;;;8.10;99.90;;;;;;5035785;28;20204;-72
2020/12/18 11:11:34;;;;;;;15.85;10.80;;;8.00;99.90;;;;;;5035798;28;20322;-72
2020/12/18 11:14:00;;;;;;;17.33;11.52;;;8.00;99.90;;;;;;5035261;28;20232;-72
2020/12/18 11:16:27;;;;;;;16.67;10.65;;;8.00;99.90;;;;;;5034723;28;20291;-72
2020/12/18 11:18:53;;;;;;;19.63;11.95;;;8.10;99.90;;;;;;5035190;28;20208;-72
2020/12/18 11:21:19;;;;;;;18.85;11.13;;;8.20;99.90;;;;;;5034986;28;20311;-72
2020/12/18 11:23:46;;;;;;;20.40;11.68;;;8.30;99.90;;;;;;5035489;28;20312;-73
2020/12/18 11:26:13;;;;;;;18.00;10.50;;;8.30;99.90;;;;;;5034961;28;20210;-73
2020/12/18 11:28:39;;;;;;;17.30;11.05;;;8.40;99.90;;;;;;5035178;28;20203;-73
2020/12/18 11:31:06;;;;;;;15.23;10.38;;;8.40;99.90;;;;;;5035039;28;20655;-72
2020/12/18 11:33:32;;;;;;;16.88;11.55;;;8.40;99.90;;;;;;5034970;28;20223;-73
2020/12/18 11:35:59;;;;;;;16.27;11.60;;;8.40;99.90;;;;;;5035124;28;20210;-73
2020/12/18 11:38:25;;;;;;;23.40;11.70;;;8.30;99.90;;;;;;5035219;28;20207;-72
2020/12/18 11:40:52;;;;;;;18.25;11.20;;;8.30;99.90;;;;;;5034660;28;20239;-73
2020/12/18 11:43:19;;;;;;;18.88;10.57;;;8.40;99.90;;;;;;5034829;28;20293;-72
2020/12/18 11:45:45;;;;;;;18.95;11.32;;;8.40;99.90;;;;;;5034789;28;20345;-73
2020/12/18 11:48:11;;;;;;;19.60;10.40;;;8.40;99.90;;;;;;5034780;28;20714;-73
2020/12/18 11:50:38;;;;;;;17.52;11.20;;;8.60;99.90;;;;;;5034991;28;20196;-73
2020/12/18 11:53:05;;;;;;;18.85;11.32;;;8.70;99.90;;;;;;5034957;28;20298;-73
2020/12/18 11:55:32;;;;;;;14.88;10.10;;;8.70;99.90;;;;;;5034932;28;20212;-73
2020/12/18 11:57:59;;;;;;;19.05;10.95;;;8.70;99.90;;;;;;5034675;28;20204;-73
2020/12/18 12:00:25;;;;;;;15.15;10.23;;;8.70;99.90;;;;;;5034618;28;20224;-73
2020/12/18 12:02:53;;;;;;;20.10;11.40;;;8.70;99.90;;;;;;5034377;28;20240;-72
2020/12/18 12:05:20;;;;;;;16.75;10.82;;;8.70;99.90;;;;;;5034476;28;20231;-72
2020/12/18 12:07:47;;;;;;;16.58;10.20;;;8.70;99.90;;;;;;5034713;28;20546;-73
2020/12/18 12:10:14;;;;;;;14.90;10.52;;;8.70;99.90;;;;;;5034183;28;20207;-72
2020/12/18 12:12:40;;;;;;;16.85;10.18;;;8.80;99.90;;;;;;5034271;28;20664;-73
2020/12/18 12:15:07;;;;;;;12.40;9.35;;;8.90;99.90;;;;;;5034249;28;20228;-73
2020/12/18 12:17:34;;;;;;;19.35;10.50;;;9.10;99.90;;;;;;5034862;28;20215;-72
2020/12/18 12:20:01;;;;;;;16.30;10.30;;;9.20;99.90;;;;;;5035639;28;20214;-72
2020/12/18 12:22:27;;;;;;;17.35;10.02;;;9.20;99.90;;;;;;5035520;28;20204;-72
2020/12/18 12:24:55;;;;;;;14.63;9.60;;;9.30;99.90;;;;;;5034834;28;20630;-72
2020/12/18 12:27:23;;;;;;;16.65;10.23;;;9.40;99.90;;;;;;5034677;28;20284;-72
2020/12/18 12:29:49;;;;;;;15.73;11.13;;;9.50;99.90;;;;;;5035097;28;20214;-72
2020/12/18 12:32:16;;;;;;;15.75;10.35;;;9.60;99.90;;;;;;5035010;28;20574;-73
2020/12/18 12:34:43;;;;;;;14.55;10.00;;;9.60;99.90;;;;;;5035521;28;20235;-73
2020/12/18 12:37:11;;;;;;;13.88;9.38;;;9.60;99.90;;;;;;5035413;28;20291;-73
2020/12/18 12:39:38;;;;;;;13.30;8.77;;;9.60;99.90;;;;;;5035125;28;20601;-72
2020/12/18 12:42:04;;;;;;;15.15;9.25;;;9.60;99.90;;;;;;5035268;28;20720;-72
2020/12/18 12:44:31;;;;;;;16.75;10.90;;;9.60;99.90;;;;;;5035298;28;20294;-72
2020/12/18 12:46:57;;;;;;;12.93;9.23;;;9.80;99.90;;;;;;5035423;28;20294;-73
2020/12/18 12:49:28;;;;;;;12.88;9.45;;;10.00;99.90;;;;;;5035061;28;20257;-73
2020/12/18 12:51:55;;;;;;;15.05;9.98;;;10.10;99.90;;;;;;5034359;28;20294;-72